Flight Track Log - Related Links

Times and Time Zones

All times are in EDT time to prevent confusion due to time zone crossing. See the RPA4920 flight status page for this flight to view local times or setup timezone preferences in your user account.

Time Position Orientation Groundspeed Altitude Reporting Facility
EDT Latitude Longitude Course Direction KTS MPH feet Rate Location/Type
Wed 09:35:25 PM 39.8167 -104.6667 189° South 193 222 6,600  Level Denver TRACON
Wed 09:36:27 PM 39.7472 -104.6808 189° South 221 254 8,300 1,765 Climbing Denver Center
Wed 09:37:41 PM 39.6831 -104.7025 195° South 236 272 10,600 2,074 Climbing Denver Center
Wed 09:38:43 PM 39.6031 -104.7386 199° South 248 285 13,000 2,129 Climbing Denver Center
Wed 09:39:45 PM 39.5350 -104.7828 207° Southwest 254 292 15,000 1,694 Climbing Denver Center
Wed 09:40:47 PM 39.4739 -104.8306 211° Southwest 255 293 16,500 1,073 Climbing Denver Center
Wed 09:41:48 PM 39.4164 -104.8706 208° Southwest 274 315 17,200 1,220 Climbing Denver Center
Wed 09:42:50 PM 39.3325 -104.9306 209° Southwest 277 319 19,000 1,500 Climbing Denver Center
Wed 09:43:52 PM 39.2653 -104.9758 208° Southwest 274 315 20,300 1,258 Climbing Denver Center
Wed 09:44:54 PM 39.1950 -105.0247 208° Southwest 266 306 21,600 1,016 Climbing Denver Center
Wed 09:45:56 PM 39.1264 -105.0717 208° Southwest 274 315 22,400 780 Climbing Denver Center
Wed 09:46:57 PM 39.0572 -105.1114 204° Southwest 283 326 23,200 780 Climbing Denver Center
Wed 09:47:59 PM 38.9764 -105.1589 205° Southwest 284 327 24,000 387 Climbing Denver Center
Wed 09:49:01 PM 38.9028 -105.2028 205° Southwest 303 349 24,000  Level Denver Center
Wed 09:50:02 PM 38.8117 -105.2536 203° Southwest 313 360 24,000  Level Denver Center
Wed 09:51:04 PM 38.7269 -105.3042 205° Southwest 336 387 24,000  Level Denver Center
Wed 09:52:06 PM 38.6411 -105.3528 204° Southwest 346 398 24,000  Level Denver Center
Wed 09:53:07 PM 38.5364 -105.4094 203° Southwest 361 415 24,000  Level Denver Center
Wed 09:54:09 PM 38.4433 -105.4414 195° South 364 419 24,000  Level Denver Center
Wed 09:55:11 PM 38.3328 -105.4792 195° South 365 420 24,000  Level Denver Center
Wed 09:56:12 PM 38.2372 -105.5114 195° South 368 423 24,000  Level Denver Center
Wed 09:57:14 PM 38.1269 -105.5489 195° South 368 423 24,000  Level Denver Center
Wed 09:58:16 PM 38.0344 -105.5817 196° South 366 421 24,000  Level Denver Center
Wed 09:59:17 PM 37.9417 -105.6161 196° South 362 417 24,000  Level Denver Center
Wed 10:00:19 PM 37.8317 -105.6531 195° South 363 418 24,000  Level Denver Center
Wed 10:01:20 PM 37.7811 -105.7456 235° Southwest 348 400 24,000  Level Denver Center
Wed 10:02:22 PM 37.7419 -105.8772 249° West 355 409 24,000  Level Denver Center
Wed 10:03:24 PM 37.7078 -105.9881 249° West 355 409 24,000  Level Denver Center
Wed 10:04:25 PM 37.6681 -106.1192 249° West 357 411 24,000  Level Denver Center
Wed 10:05:27 PM 37.6300 -106.2378 248° West 357 411 24,000  Level Denver Center
Wed 10:06:29 PM 37.5967 -106.3522 250° West 361 415 24,000  Level Denver Center
Wed 10:07:30 PM 37.5622 -106.4647 249° West 360 414 24,000  Level Denver Center
Wed 10:08:32 PM 37.5208 -106.5950 248° West 359 413 24,000 -339 Level Denver Center
Wed 10:09:34 PM 37.4856 -106.7078 249° West 361 415 23,300 -1,171 Descending Denver Center
Wed 10:10:35 PM 37.4447 -106.8397 249° West 362 417 21,600 -1,512 Descending Denver Center
Wed 10:11:37 PM 37.4117 -106.9536 250° West 362 417 20,200 -1,366 Descending Denver Center
Wed 10:12:38 PM 37.3825 -107.0456 248° West 359 413 18,800 -1,600 Descending Denver Center
Wed 10:13:52 PM 37.3367 -107.1886 248° West 352 405 16,600 -1,824 Descending Denver Center
Wed 10:15:06 PM 37.2989 -107.3264 251° West 335 386 14,300 -1,897 Descending Denver Center
Wed 10:16:08 PM 37.2797 -107.4469 259° West 321 369 12,300 -1,887 Descending Denver Center
Wed 10:17:10 PM 37.2578 -107.5536 256° West 301 346 10,400 -1,463 Descending Denver Center
Wed 10:18:11 PM 37.2406 -107.6364 255° West 279 321 9,300 -1,122 Descending Denver Center
Wed 10:19:13 PM 37.2119 -107.7047 242° Southwest 226 260 8,100 -1,113 Descending Denver Center
Wed 10:20:15 PM 37.1750 -107.7358 214° Southwest 187 215 7,000 -585 Descending Denver Center
Wed 10:21:16 PM 37.1414 -107.7644 214° Southwest 181 208 6,900 -98 Descending Denver Center

Login

Don't have an account? Register now (free) for customized features, flight alerts, and more!